sensor_id;sensor_type;location;lat;lon;timestamp;temperature;humidity
9772;DHT22;4925;52.588;13.370;2023-07-24T00:01:18;21.90;99.90
9772;DHT22;4925;52.588;13.370;2023-07-24T00:03:45;21.90;99.90
9772;DHT22;4925;52.588;13.370;2023-07-24T00:06:10;21.80;99.90
9772;DHT22;4925;52.588;13.370;2023-07-24T00:08:36;21.70;99.90
9772;DHT22;4925;52.588;13.370;2023-07-24T00:11:01;21.60;99.90
9772;DHT22;4925;52.588;13.370;2023-07-24T00:13:30;21.60;99.90
9772;DHT22;4925;52.588;13.370;2023-07-24T00:15:56;21.70;99.90
9772;DHT22;4925;52.588;13.370;2023-07-24T00:18:22;21.60;99.90
9772;DHT22;4925;52.588;13.370;2023-07-24T00:20:48;21.50;99.90
9772;DHT22;4925;52.588;13.370;2023-07-24T00:23:13;21.40;99.90
9772;DHT22;4925;52.588;13.370;2023-07-24T00:25:39;21.30;99.90
9772;DHT22;4925;52.588;13.370;2023-07-24T00:28:05;21.30;99.90
9772;DHT22;4925;52.588;13.370;2023-07-24T00:30:31;21.30;99.90
9772;DHT22;4925;52.588;13.370;2023-07-24T00:32:56;21.30;99.90
9772;DHT22;4925;52.588;13.370;2023-07-24T00:35:22;21.40;99.90
9772;DHT22;4925;52.588;13.370;2023-07-24T00:37:48;21.40;99.90
9772;DHT22;4925;52.588;13.370;2023-07-24T00:40:13;21.50;99.90
9772;DHT22;4925;52.588;13.370;2023-07-24T00:42:39;21.50;99.90
9772;DHT22;4925;52.588;13.370;2023-07-24T00:45:05;21.50;99.90
9772;DHT22;4925;52.588;13.370;2023-07-24T00:47:31;21.60;99.90
9772;DHT22;4925;52.588;13.370;2023-07-24T00:49:57;21.60;99.90
9772;DHT22;4925;52.588;13.370;2023-07-24T00:52:23;21.70;99.90
9772;DHT22;4925;52.588;13.370;2023-07-24T00:54:49;21.60;99.90
9772;DHT22;4925;52.588;13.370;2023-07-24T00:57:15;21.70;99.90
9772;DHT22;4925;52.588;13.370;2023-07-24T00:59:41;21.70;99.90
9772;DHT22;4925;52.588;13.370;2023-07-24T01:02:08;21.70;99.90
9772;DHT22;4925;52.588;13.370;2023-07-24T01:04:34;21.60;99.90
9772;DHT22;4925;52.588;13.370;2023-07-24T01:07:00;21.70;99.90
9772;DHT22;4925;52.588;13.370;2023-07-24T01:09:25;21.70;99.90
9772;DHT22;4925;52.588;13.370;2023-07-24T01:12:00;21.70;99.90
9772;DHT22;4925;52.588;13.370;2023-07-24T01:15:05;21.80;99.90
9772;DHT22;4925;52.588;13.370;2023-07-24T01:17:32;21.80;99.90
9772;DHT22;4925;52.588;13.370;2023-07-24T01:20:01;21.90;99.90
9772;DHT22;4925;52.588;13.370;2023-07-24T01:27:51;21.80;99.90
9772;DHT22;4925;52.588;13.370;2023-07-24T01:30:18;21.80;99.90
9772;DHT22;4925;52.588;13.370;2023-07-24T01:32:44;21.80;99.90
9772;DHT22;4925;52.588;13.370;2023-07-24T01:35:10;21.70;99.90
9772;DHT22;4925;52.588;13.370;2023-07-24T01:37:37;21.70;99.90
9772;DHT22;4925;52.588;13.370;2023-07-24T01:40:07;21.70;99.90
9772;DHT22;4925;52.588;13.370;2023-07-24T01:42:33;21.70;99.90
9772;DHT22;4925;52.588;13.370;2023-07-24T01:44:59;21.60;99.90
9772;DHT22;4925;52.588;13.370;2023-07-24T01:47:25;21.60;99.90
9772;DHT22;4925;52.588;13.370;2023-07-24T01:49:51;21.50;99.90
9772;DHT22;4925;52.588;13.370;2023-07-24T01:52:17;21.50;99.90
9772;DHT22;4925;52.588;13.370;2023-07-24T01:54:43;21.70;99.90
9772;DHT22;4925;52.588;13.370;2023-07-24T01:57:08;21.50;99.90
9772;DHT22;4925;52.588;13.370;2023-07-24T01:59:34;21.60;99.90
9772;DHT22;4925;52.588;13.370;2023-07-24T02:02:00;21.60;99.90
9772;DHT22;4925;52.588;13.370;2023-07-24T02:04:25;21.60;99.90
9772;DHT22;4925;52.588;13.370;2023-07-24T02:06:51;21.60;99.90
9772;DHT22;4925;52.588;13.370;2023-07-24T02:09:18;21.60;99.90
9772;DHT22;4925;52.588;13.370;2023-07-24T02:11:44;21.60;99.90
9772;DHT22;4925;52.588;13.370;2023-07-24T02:14:11;21.60;99.90
9772;DHT22;4925;52.588;13.370;2023-07-24T02:16:37;21.60;99.90
9772;DHT22;4925;52.588;13.370;2023-07-24T02:19:02;21.60;99.90
9772;DHT22;4925;52.588;13.370;2023-07-24T02:21:28;21.50;99.90
9772;DHT22;4925;52.588;13.370;2023-07-24T02:23:54;21.50;99.90
9772;DHT22;4925;52.588;13.370;2023-07-24T02:26:19;21.50;99.90
9772;DHT22;4925;52.588;13.370;2023-07-24T02:28:45;21.40;99.90
9772;DHT22;4925;52.588;13.370;2023-07-24T02:31:11;21.50;99.90
9772;DHT22;4925;52.588;13.370;2023-07-24T02:33:37;21.50;99.90
9772;DHT22;4925;52.588;13.370;2023-07-24T02:36:02;21.50;99.90
9772;DHT22;4925;52.588;13.370;2023-07-24T02:38:28;21.70;99.90
9772;DHT22;4925;52.588;13.370;2023-07-24T02:40:54;21.50;99.90
9772;DHT22;4925;52.588;13.370;2023-07-24T02:43:19;21.60;99.90
9772;DHT22;4925;52.588;13.370;2023-07-24T02:45:45;21.60;99.90
9772;DHT22;4925;52.588;13.370;2023-07-24T02:48:11;21.70;99.90
9772;DHT22;4925;52.588;13.370;2023-07-24T02:50:38;21.60;99.90
9772;DHT22;4925;52.588;13.370;2023-07-24T02:53:03;21.40;99.90
9772;DHT22;4925;52.588;13.370;2023-07-24T02:55:30;21.50;99.90
9772;DHT22;4925;52.588;13.370;2023-07-24T02:57:55;21.50;99.90
9772;DHT22;4925;52.588;13.370;2023-07-24T03:00:21;21.60;99.90
9772;DHT22;4925;52.588;13.370;2023-07-24T03:02:47;21.50;99.90
9772;DHT22;4925;52.588;13.370;2023-07-24T03:05:12;21.60;99.90
9772;DHT22;4925;52.588;13.370;2023-07-24T03:07:38;21.50;99.90
9772;DHT22;4925;52.588;13.370;2023-07-24T03:10:04;21.50;99.90
9772;DHT22;4925;52.588;13.370;2023-07-24T03:12:30;21.40;99.90
9772;DHT22;4925;52.588;13.370;2023-07-24T03:14:55;21.40;99.90
9772;DHT22;4925;52.588;13.370;2023-07-24T03:17:22;21.40;99.90
9772;DHT22;4925;52.588;13.370;2023-07-24T03:19:49;21.50;99.90
9772;DHT22;4925;52.588;13.370;2023-07-24T03:22:15;21.40;99.90
9772;DHT22;4925;52.588;13.370;2023-07-24T03:24:40;21.20;99.90
9772;DHT22;4925;52.588;13.370;2023-07-24T03:27:06;21.10;99.90
9772;DHT22;4925;52.588;13.370;2023-07-24T03:29:32;21.10;99.90
9772;DHT22;4925;52.588;13.370;2023-07-24T03:31:58;21.10;99.90
9772;DHT22;4925;52.588;13.370;2023-07-24T03:34:23;21.10;99.90
9772;DHT22;4925;52.588;13.370;2023-07-24T03:36:49;21.00;99.90
9772;DHT22;4925;52.588;13.370;2023-07-24T03:39:14;21.00;99.90
9772;DHT22;4925;52.588;13.370;2023-07-24T03:41:41;21.00;99.90
9772;DHT22;4925;52.588;13.370;2023-07-24T03:44:07;21.00;99.90
9772;DHT22;4925;52.588;13.370;2023-07-24T03:46:33;20.80;99.90
9772;DHT22;4925;52.588;13.370;2023-07-24T03:48:59;20.80;99.90
9772;DHT22;4925;52.588;13.370;2023-07-24T03:51:24;20.80;99.90
9772;DHT22;4925;52.588;13.370;2023-07-24T03:53:50;20.70;99.90
9772;DHT22;4925;52.588;13.370;2023-07-24T03:56:16;20.70;99.90
9772;DHT22;4925;52.588;13.370;2023-07-24T03:58:42;20.60;99.90
9772;DHT22;4925;52.588;13.370;2023-07-24T04:01:08;20.50;99.90
9772;DHT22;4925;52.588;13.370;2023-07-24T04:03:35;20.50;99.90
9772;DHT22;4925;52.588;13.370;2023-07-24T04:06:01;20.50;99.90
9772;DHT22;4925;52.588;13.370;2023-07-24T04:08:26;20.50;99.90
9772;DHT22;4925;52.588;13.370;2023-07-24T04:10:52;20.60;99.90
9772;DHT22;4925;52.588;13.370;2023-07-24T04:13:18;20.70;99.90
9772;DHT22;4925;52.588;13.370;2023-07-24T04:15:43;20.60;99.90
9772;DHT22;4925;52.588;13.370;2023-07-24T04:18:10;20.50;99.90
9772;DHT22;4925;52.588;13.370;2023-07-24T04:20:36;20.50;99.90
9772;DHT22;4925;52.588;13.370;2023-07-24T04:23:02;20.50;99.90
9772;DHT22;4925;52.588;13.370;2023-07-24T04:25:28;20.50;99.90
9772;DHT22;4925;52.588;13.370;2023-07-24T04:27:54;20.60;99.90
9772;DHT22;4925;52.588;13.370;2023-07-24T04:30:19;20.80;99.90
9772;DHT22;4925;52.588;13.370;2023-07-24T04:32:45;20.90;99.90
9772;DHT22;4925;52.588;13.370;2023-07-24T04:35:11;21.00;99.90
9772;DHT22;4925;52.588;13.370;2023-07-24T04:37:37;21.10;99.90
9772;DHT22;4925;52.588;13.370;2023-07-24T04:40:04;21.20;99.90
9772;DHT22;4925;52.588;13.370;2023-07-24T04:42:30;21.20;99.90
9772;DHT22;4925;52.588;13.370;2023-07-24T04:44:56;21.20;99.90
9772;DHT22;4925;52.588;13.370;2023-07-24T04:47:22;21.20;99.90
9772;DHT22;4925;52.588;13.370;2023-07-24T04:49:47;21.30;99.90
9772;DHT22;4925;52.588;13.370;2023-07-24T04:52:13;21.50;99.90
9772;DHT22;4925;52.588;13.370;2023-07-24T04:54:38;21.60;99.90
9772;DHT22;4925;52.588;13.370;2023-07-24T04:57:04;21.80;99.90
9772;DHT22;4925;52.588;13.370;2023-07-24T04:59:30;22.00;99.90
9772;DHT22;4925;52.588;13.370;2023-07-24T05:01:56;22.10;99.90
9772;DHT22;4925;52.588;13.370;2023-07-24T05:04:21;22.30;99.90
9772;DHT22;4925;52.588;13.370;2023-07-24T05:06:47;22.40;99.90
9772;DHT22;4925;52.588;13.370;2023-07-24T05:09:13;22.60;99.90
9772;DHT22;4925;52.588;13.370;2023-07-24T05:11:40;22.50;99.90
9772;DHT22;4925;52.588;13.370;2023-07-24T05:14:05;22.60;99.90
9772;DHT22;4925;52.588;13.370;2023-07-24T05:16:31;22.30;99.90
9772;DHT22;4925;52.588;13.370;2023-07-24T05:18:57;22.30;99.90
9772;DHT22;4925;52.588;13.370;2023-07-24T05:21:22;22.40;99.90
9772;DHT22;4925;52.588;13.370;2023-07-24T05:23:48;22.40;99.90
9772;DHT22;4925;52.588;13.370;2023-07-24T05:26:14;22.60;99.90
9772;DHT22;4925;52.588;13.370;2023-07-24T05:28:39;22.70;99.90
9772;DHT22;4925;52.588;13.370;2023-07-24T05:31:05;22.80;99.90
9772;DHT22;4925;52.588;13.370;2023-07-24T05:33:32;22.90;99.90
9772;DHT22;4925;52.588;13.370;2023-07-24T05:36:07;22.80;99.90
9772;DHT22;4925;52.588;13.370;2023-07-24T05:38:33;22.90;99.90
9772;DHT22;4925;52.588;13.370;2023-07-24T05:41:03;23.00;99.90
9772;DHT22;4925;52.588;13.370;2023-07-24T05:43:30;22.80;99.90
9772;DHT22;4925;52.588;13.370;2023-07-24T05:45:57;22.90;99.90
9772;DHT22;4925;52.588;13.370;2023-07-24T05:48:23;22.70;99.90
9772;DHT22;4925;52.588;13.370;2023-07-24T05:50:49;22.80;99.90
9772;DHT22;4925;52.588;13.370;2023-07-24T05:53:15;22.80;99.90
9772;DHT22;4925;52.588;13.370;2023-07-24T05:55:41;22.80;99.90
9772;DHT22;4925;52.588;13.370;2023-07-24T05:58:08;22.70;99.90
9772;DHT22;4925;52.588;13.370;2023-07-24T06:00:34;22.80;99.90
9772;DHT22;4925;52.588;13.370;2023-07-24T06:02:59;22.70;99.90
9772;DHT22;4925;52.588;13.370;2023-07-24T06:05:25;22.60;99.90
9772;DHT22;4925;52.588;13.370;2023-07-24T06:07:51;22.60;99.90
9772;DHT22;4925;52.588;13.370;2023-07-24T06:10:16;22.60;99.90
9772;DHT22;4925;52.588;13.370;2023-07-24T06:12:42;22.60;99.90
9772;DHT22;4925;52.588;13.370;2023-07-24T06:15:08;22.40;99.90
9772;DHT22;4925;52.588;13.370;2023-07-24T06:17:33;22.50;99.90
9772;DHT22;4925;52.588;13.370;2023-07-24T06:19:59;22.40;99.90
9772;DHT22;4925;52.588;13.370;2023-07-24T06:22:25;22.40;99.90
9772;DHT22;4925;52.588;13.370;2023-07-24T06:24:50;22.50;99.90
9772;DHT22;4925;52.588;13.370;2023-07-24T06:27:16;22.60;99.90
9772;DHT22;4925;52.588;13.370;2023-07-24T06:29:42;22.60;99.90
9772;DHT22;4925;52.588;13.370;2023-07-24T06:32:08;22.70;99.90
9772;DHT22;4925;52.588;13.370;2023-07-24T06:34:34;22.60;99.90
9772;DHT22;4925;52.588;13.370;2023-07-24T06:37:00;22.60;99.90
9772;DHT22;4925;52.588;13.370;2023-07-24T06:39:26;22.60;99.90
9772;DHT22;4925;52.588;13.370;2023-07-24T06:41:52;22.50;99.90
9772;DHT22;4925;52.588;13.370;2023-07-24T06:44:18;22.60;99.90
9772;DHT22;4925;52.588;13.370;2023-07-24T06:46:43;22.70;99.90
9772;DHT22;4925;52.588;13.370;2023-07-24T06:49:09;22.80;99.90
9772;DHT22;4925;52.588;13.370;2023-07-24T06:51:36;22.90;99.90
9772;DHT22;4925;52.588;13.370;2023-07-24T06:54:02;23.00;99.90
9772;DHT22;4925;52.588;13.370;2023-07-24T06:56:28;23.10;99.90
9772;DHT22;4925;52.588;13.370;2023-07-24T06:58:54;23.10;99.90
9772;DHT22;4925;52.588;13.370;2023-07-24T07:01:19;23.20;99.90
9772;DHT22;4925;52.588;13.370;2023-07-24T07:03:45;23.30;99.90
9772;DHT22;4925;52.588;13.370;2023-07-24T07:06:11;23.30;99.90
9772;DHT22;4925;52.588;13.370;2023-07-24T07:08:37;23.30;99.90
9772;DHT22;4925;52.588;13.370;2023-07-24T07:11:03;23.40;99.90
9772;DHT22;4925;52.588;13.370;2023-07-24T07:13:29;23.40;99.90
9772;DHT22;4925;52.588;13.370;2023-07-24T07:15:54;23.50;99.90
9772;DHT22;4925;52.588;13.370;2023-07-24T07:18:20;23.50;99.90
9772;DHT22;4925;52.588;13.370;2023-07-24T07:20:47;23.60;99.90
9772;DHT22;4925;52.588;13.370;2023-07-24T07:23:13;23.80;99.90
9772;DHT22;4925;52.588;13.370;2023-07-24T07:25:39;23.80;99.90
9772;DHT22;4925;52.588;13.370;2023-07-24T07:28:04;23.80;99.90
9772;DHT22;4925;52.588;13.370;2023-07-24T07:30:30;24.00;99.90
9772;DHT22;4925;52.588;13.370;2023-07-24T07:32:56;24.20;99.90
9772;DHT22;4925;52.588;13.370;2023-07-24T07:35:21;24.30;99.90
9772;DHT22;4925;52.588;13.370;2023-07-24T07:37:47;24.40;99.90
9772;DHT22;4925;52.588;13.370;2023-07-24T07:40:13;24.40;99.90
9772;DHT22;4925;52.588;13.370;2023-07-24T07:42:38;24.50;99.90
9772;DHT22;4925;52.588;13.370;2023-07-24T07:45:04;24.60;99.90
9772;DHT22;4925;52.588;13.370;2023-07-24T07:47:30;24.50;99.90
9772;DHT22;4925;52.588;13.370;2023-07-24T07:49:56;24.50;99.90
9772;DHT22;4925;52.588;13.370;2023-07-24T07:52:21;24.60;99.90
9772;DHT22;4925;52.588;13.370;2023-07-24T07:54:48;24.60;99.90
9772;DHT22;4925;52.588;13.370;2023-07-24T07:57:14;24.80;99.90
9772;DHT22;4925;52.588;13.370;2023-07-24T07:59:40;24.90;99.90
9772;DHT22;4925;52.588;13.370;2023-07-24T08:02:06;24.90;99.90
9772;DHT22;4925;52.588;13.370;2023-07-24T08:04:32;25.00;99.90
9772;DHT22;4925;52.588;13.370;2023-07-24T08:06:57;25.10;99.90
9772;DHT22;4925;52.588;13.370;2023-07-24T08:09:23;25.10;99.90
9772;DHT22;4925;52.588;13.370;2023-07-24T08:11:50;25.30;99.90
9772;DHT22;4925;52.588;13.370;2023-07-24T08:14:17;25.50;99.90
9772;DHT22;4925;52.588;13.370;2023-07-24T08:16:43;25.40;99.90
9772;DHT22;4925;52.588;13.370;2023-07-24T08:19:09;25.60;99.90
9772;DHT22;4925;52.588;13.370;2023-07-24T08:21:34;25.50;99.90
9772;DHT22;4925;52.588;13.370;2023-07-24T08:24:00;25.50;99.90
9772;DHT22;4925;52.588;13.370;2023-07-24T08:26:27;25.50;99.90
9772;DHT22;4925;52.588;13.370;2023-07-24T08:28:53;25.50;99.90
9772;DHT22;4925;52.588;13.370;2023-07-24T08:31:19;25.80;99.90
9772;DHT22;4925;52.588;13.370;2023-07-24T08:33:45;26.00;99.90
9772;DHT22;4925;52.588;13.370;2023-07-24T08:36:11;26.20;99.70
9772;DHT22;4925;52.588;13.370;2023-07-24T08:38:40;26.40;99.10
9772;DHT22;4925;52.588;13.370;2023-07-24T08:41:08;26.20;99.10
9772;DHT22;4925;52.588;13.370;2023-07-24T08:43:36;26.10;99.50
9772;DHT22;4925;52.588;13.370;2023-07-24T08:46:03;26.30;99.90
9772;DHT22;4925;52.588;13.370;2023-07-24T08:48:39;26.40;99.70
9772;DHT22;4925;52.588;13.370;2023-07-24T08:51:14;26.20;99.30
9772;DHT22;4925;52.588;13.370;2023-07-24T08:53:44;26.30;99.90
9772;DHT22;4925;52.588;13.370;2023-07-24T08:56:11;26.50;99.90
9772;DHT22;4925;52.588;13.370;2023-07-24T08:58:40;26.40;98.00
9772;DHT22;4925;52.588;13.370;2023-07-24T09:01:06;26.50;97.70
9772;DHT22;4925;52.588;13.370;2023-07-24T09:03:33;26.60;97.80
9772;DHT22;4925;52.588;13.370;2023-07-24T09:05:59;26.80;97.80
9772;DHT22;4925;52.588;13.370;2023-07-24T09:11:03;26.70;96.90
9772;DHT22;4925;52.588;13.370;2023-07-24T09:13:29;27.00;97.10
9772;DHT22;4925;52.588;13.370;2023-07-24T09:15:55;27.10;96.50
9772;DHT22;4925;52.588;13.370;2023-07-24T09:18:21;27.10;96.50
9772;DHT22;4925;52.588;13.370;2023-07-24T09:20:47;26.80;96.30
9772;DHT22;4925;52.588;13.370;2023-07-24T09:23:14;26.90;96.00
9772;DHT22;4925;52.588;13.370;2023-07-24T09:25:41;27.00;95.70
9772;DHT22;4925;52.588;13.370;2023-07-24T09:30:37;27.70;95.20
9772;DHT22;4925;52.588;13.370;2023-07-24T09:33:03;27.80;93.80
9772;DHT22;4925;52.588;13.370;2023-07-24T09:35:29;27.90;93.90
9772;DHT22;4925;52.588;13.370;2023-07-24T09:38:04;28.00;93.60
9772;DHT22;4925;52.588;13.370;2023-07-24T09:40:41;27.90;93.40
9772;DHT22;4925;52.588;13.370;2023-07-24T09:43:34;28.00;93.10
9772;DHT22;4925;52.588;13.370;2023-07-24T09:46:04;28.00;92.60
9772;DHT22;4925;52.588;13.370;2023-07-24T09:48:31;28.30;92.80
9772;DHT22;4925;52.588;13.370;2023-07-24T09:51:00;28.50;92.60
9772;DHT22;4925;52.588;13.370;2023-07-24T09:53:33;28.60;92.40
9772;DHT22;4925;52.588;13.370;2023-07-24T09:56:08;28.30;91.50
9772;DHT22;4925;52.588;13.370;2023-07-24T09:58:39;28.40;92.30
9772;DHT22;4925;52.588;13.370;2023-07-24T10:01:08;28.20;92.50
9772;DHT22;4925;52.588;13.370;2023-07-24T10:03:35;28.20;92.50
9772;DHT22;4925;52.588;13.370;2023-07-24T10:06:01;28.50;92.10
9772;DHT22;4925;52.588;13.370;2023-07-24T10:08:27;28.40;91.00
9772;DHT22;4925;52.588;13.370;2023-07-24T10:10:53;28.50;91.50
9772;DHT22;4925;52.588;13.370;2023-07-24T10:13:20;28.30;91.40
9772;DHT22;4925;52.588;13.370;2023-07-24T10:15:47;28.30;91.20
9772;DHT22;4925;52.588;13.370;2023-07-24T10:18:16;28.30;90.70
9772;DHT22;4925;52.588;13.370;2023-07-24T10:20:42;28.30;90.30
9772;DHT22;4925;52.588;13.370;2023-07-24T10:23:10;28.40;88.10
9772;DHT22;4925;52.588;13.370;2023-07-24T10:25:38;28.60;88.40
9772;DHT22;4925;52.588;13.370;2023-07-24T10:28:07;28.60;87.50
9772;DHT22;4925;52.588;13.370;2023-07-24T10:30:39;28.60;85.60
9772;DHT22;4925;52.588;13.370;2023-07-24T10:33:18;28.60;86.60
9772;DHT22;4925;52.588;13.370;2023-07-24T10:35:45;28.50;86.50
9772;DHT22;4925;52.588;13.370;2023-07-24T10:38:13;28.50;85.80
9772;DHT22;4925;52.588;13.370;2023-07-24T10:40:46;28.50;85.10
9772;DHT22;4925;52.588;13.370;2023-07-24T10:43:18;28.90;82.40
9772;DHT22;4925;52.588;13.370;2023-07-24T10:45:54;29.10;82.50
9772;DHT22;4925;52.588;13.370;2023-07-24T10:48:21;29.40;82.60
9772;DHT22;4925;52.588;13.370;2023-07-24T10:50:49;29.80;79.20
9772;DHT22;4925;52.588;13.370;2023-07-24T10:53:17;29.90;79.60
9772;DHT22;4925;52.588;13.370;2023-07-24T10:55:44;29.50;78.50
9772;DHT22;4925;52.588;13.370;2023-07-24T10:58:11;29.50;79.10
9772;DHT22;4925;52.588;13.370;2023-07-24T11:00:39;29.60;78.40
9772;DHT22;4925;52.588;13.370;2023-07-24T11:03:07;29.80;77.20
9772;DHT22;4925;52.588;13.370;2023-07-24T11:05:34;29.70;77.10
9772;DHT22;4925;52.588;13.370;2023-07-24T11:07:59;29.90;75.70
9772;DHT22;4925;52.588;13.370;2023-07-24T11:10:25;29.70;74.40
9772;DHT22;4925;52.588;13.370;2023-07-24T11:12:51;29.70;73.90
9772;DHT22;4925;52.588;13.370;2023-07-24T11:15:24;29.70;73.70
9772;DHT22;4925;52.588;13.370;2023-07-24T11:17:50;29.60;73.30
9772;DHT22;4925;52.588;13.370;2023-07-24T11:20:16;29.50;73.20
9772;DHT22;4925;52.588;13.370;2023-07-24T11:22:43;29.40;73.40
9772;DHT22;4925;52.588;13.370;2023-07-24T11:25:12;29.10;71.80
9772;DHT22;4925;52.588;13.370;2023-07-24T11:27:42;28.70;72.90
9772;DHT22;4925;52.588;13.370;2023-07-24T11:30:12;28.80;73.50
9772;DHT22;4925;52.588;13.370;2023-07-24T11:32:42;29.10;73.90
9772;DHT22;4925;52.588;13.370;2023-07-24T11:35:08;29.20;71.90
9772;DHT22;4925;52.588;13.370;2023-07-24T11:37:34;29.20;72.30
9772;DHT22;4925;52.588;13.370;2023-07-24T11:40:02;29.20;72.70
9772;DHT22;4925;52.588;13.370;2023-07-24T11:42:30;29.40;72.40
9772;DHT22;4925;52.588;13.370;2023-07-24T11:44:56;29.50;71.30
9772;DHT22;4925;52.588;13.370;2023-07-24T11:47:26;29.50;72.20
9772;DHT22;4925;52.588;13.370;2023-07-24T11:50:01;29.80;70.70
9772;DHT22;4925;52.588;13.370;2023-07-24T11:52:48;29.80;71.00
9772;DHT22;4925;52.588;13.370;2023-07-24T11:55:15;29.70;70.30
9772;DHT22;4925;52.588;13.370;2023-07-24T11:57:41;29.60;70.80
9772;DHT22;4925;52.588;13.370;2023-07-24T12:00:18;29.30;72.10
9772;DHT22;4925;52.588;13.370;2023-07-24T12:02:44;29.20;72.20
9772;DHT22;4925;52.588;13.370;2023-07-24T12:05:10;28.80;72.90
9772;DHT22;4925;52.588;13.370;2023-07-24T12:07:36;28.70;73.50
9772;DHT22;4925;52.588;13.370;2023-07-24T12:10:04;28.40;74.90
9772;DHT22;4925;52.588;13.370;2023-07-24T12:12:44;28.20;76.30
9772;DHT22;4925;52.588;13.370;2023-07-24T12:15:11;28.20;80.60
9772;DHT22;4925;52.588;13.370;2023-07-24T12:17:37;27.90;90.00
9772;DHT22;4925;52.588;13.370;2023-07-24T12:20:07;27.50;96.00
9772;DHT22;4925;52.588;13.370;2023-07-24T12:22:37;27.00;99.80
9772;DHT22;4925;52.588;13.370;2023-07-24T12:25:06;26.50;99.90
9772;DHT22;4925;52.588;13.370;2023-07-24T12:27:32;26.10;99.90
9772;DHT22;4925;52.588;13.370;2023-07-24T12:29:59;25.90;99.90
9772;DHT22;4925;52.588;13.370;2023-07-24T12:32:25;25.70;99.90
9772;DHT22;4925;52.588;13.370;2023-07-24T12:34:51;25.40;99.90
9772;DHT22;4925;52.588;13.370;2023-07-24T12:37:17;25.30;99.90
9772;DHT22;4925;52.588;13.370;2023-07-24T12:39:44;25.20;99.90
9772;DHT22;4925;52.588;13.370;2023-07-24T12:42:11;25.40;99.90
9772;DHT22;4925;52.588;13.370;2023-07-24T12:44:36;25.70;99.90
9772;DHT22;4925;52.588;13.370;2023-07-24T12:47:03;26.30;99.90
9772;DHT22;4925;52.588;13.370;2023-07-24T12:49:29;26.80;99.90
9772;DHT22;4925;52.588;13.370;2023-07-24T12:51:54;27.20;99.90
9772;DHT22;4925;52.588;13.370;2023-07-24T12:54:20;28.00;99.90
9772;DHT22;4925;52.588;13.370;2023-07-24T12:56:48;28.40;99.90
9772;DHT22;4925;52.588;13.370;2023-07-24T12:59:13;28.70;99.90
9772;DHT22;4925;52.588;13.370;2023-07-24T13:01:39;28.60;99.90
9772;DHT22;4925;52.588;13.370;2023-07-24T13:04:05;28.60;99.90
9772;DHT22;4925;52.588;13.370;2023-07-24T13:06:31;28.50;99.90
9772;DHT22;4925;52.588;13.370;2023-07-24T13:08:56;28.10;99.90
9772;DHT22;4925;52.588;13.370;2023-07-24T13:11:22;28.20;99.90
9772;DHT22;4925;52.588;13.370;2023-07-24T13:13:47;28.10;99.90
9772;DHT22;4925;52.588;13.370;2023-07-24T13:16:15;28.10;99.90
9772;DHT22;4925;52.588;13.370;2023-07-24T13:18:41;28.10;99.90
9772;DHT22;4925;52.588;13.370;2023-07-24T13:21:07;28.20;99.90
9772;DHT22;4925;52.588;13.370;2023-07-24T13:23:33;28.20;99.90
9772;DHT22;4925;52.588;13.370;2023-07-24T13:25:59;28.50;99.90
9772;DHT22;4925;52.588;13.370;2023-07-24T13:28:25;28.50;99.90
9772;DHT22;4925;52.588;13.370;2023-07-24T13:30:50;28.70;99.90
9772;DHT22;4925;52.588;13.370;2023-07-24T13:33:16;28.80;99.90
9772;DHT22;4925;52.588;13.370;2023-07-24T13:35:42;29.10;99.90
9772;DHT22;4925;52.588;13.370;2023-07-24T13:38:08;29.30;99.90
9772;DHT22;4925;52.588;13.370;2023-07-24T13:40:34;29.30;99.90
9772;DHT22;4925;52.588;13.370;2023-07-24T13:43:00;29.40;99.90
9772;DHT22;4925;52.588;13.370;2023-07-24T13:45:26;29.40;99.90
9772;DHT22;4925;52.588;13.370;2023-07-24T13:47:52;29.60;99.90
9772;DHT22;4925;52.588;13.370;2023-07-24T13:50:18;29.60;99.90
9772;DHT22;4925;52.588;13.370;2023-07-24T13:52:43;29.70;99.90
9772;DHT22;4925;52.588;13.370;2023-07-24T13:55:09;29.90;99.90
9772;DHT22;4925;52.588;13.370;2023-07-24T13:57:35;29.90;99.90
9772;DHT22;4925;52.588;13.370;2023-07-24T14:00:00;29.90;99.60
9772;DHT22;4925;52.588;13.370;2023-07-24T14:02:26;29.40;99.90
9772;DHT22;4925;52.588;13.370;2023-07-24T14:04:52;29.50;99.90
9772;DHT22;4925;52.588;13.370;2023-07-24T14:07:18;29.50;99.90
9772;DHT22;4925;52.588;13.370;2023-07-24T14:09:44;29.30;99.90
9772;DHT22;4925;52.588;13.370;2023-07-24T14:12:10;29.10;99.90
9772;DHT22;4925;52.588;13.370;2023-07-24T14:14:36;29.10;99.90
9772;DHT22;4925;52.588;13.370;2023-07-24T14:17:02;29.20;99.90
9772;DHT22;4925;52.588;13.370;2023-07-24T14:19:27;29.20;99.90
9772;DHT22;4925;52.588;13.370;2023-07-24T14:21:53;29.20;99.90
9772;DHT22;4925;52.588;13.370;2023-07-24T14:24:18;29.30;99.90
9772;DHT22;4925;52.588;13.370;2023-07-24T14:26:44;29.30;99.90
9772;DHT22;4925;52.588;13.370;2023-07-24T14:29:13;29.30;99.90
9772;DHT22;4925;52.588;13.370;2023-07-24T14:31:45;29.20;99.90
9772;DHT22;4925;52.588;13.370;2023-07-24T14:34:11;29.20;98.40
9772;DHT22;4925;52.588;13.370;2023-07-24T14:36:38;29.00;99.10
9772;DHT22;4925;52.588;13.370;2023-07-24T14:39:05;29.00;99.20
9772;DHT22;4925;52.588;13.370;2023-07-24T14:41:31;28.90;99.60
9772;DHT22;4925;52.588;13.370;2023-07-24T14:43:56;28.50;99.90
9772;DHT22;4925;52.588;13.370;2023-07-24T14:46:22;28.40;99.50
9772;DHT22;4925;52.588;13.370;2023-07-24T14:48:49;28.40;99.90
9772;DHT22;4925;52.588;13.370;2023-07-24T14:51:15;28.10;99.90
9772;DHT22;4925;52.588;13.370;2023-07-24T14:53:40;28.10;99.90
9772;DHT22;4925;52.588;13.370;2023-07-24T14:56:06;27.90;99.90
9772;DHT22;4925;52.588;13.370;2023-07-24T14:58:32;28.00;99.90
9772;DHT22;4925;52.588;13.370;2023-07-24T15:00:57;27.90;99.90
9772;DHT22;4925;52.588;13.370;2023-07-24T15:03:23;27.60;99.70
9772;DHT22;4925;52.588;13.370;2023-07-24T15:05:49;27.60;99.90
9772;DHT22;4925;52.588;13.370;2023-07-24T15:08:14;27.70;99.90
9772;DHT22;4925;52.588;13.370;2023-07-24T15:10:40;27.80;99.90
9772;DHT22;4925;52.588;13.370;2023-07-24T15:13:08;28.00;99.90
9772;DHT22;4925;52.588;13.370;2023-07-24T15:15:34;28.10;99.90
9772;DHT22;4925;52.588;13.370;2023-07-24T15:18:00;28.10;99.90
9772;DHT22;4925;52.588;13.370;2023-07-24T15:20:26;28.20;99.90
9772;DHT22;4925;52.588;13.370;2023-07-24T15:22:51;28.20;99.10
9772;DHT22;4925;52.588;13.370;2023-07-24T15:25:20;28.10;97.40
9772;DHT22;4925;52.588;13.370;2023-07-24T15:27:46;28.10;98.00
9772;DHT22;4925;52.588;13.370;2023-07-24T15:30:12;27.90;97.10
9772;DHT22;4925;52.588;13.370;2023-07-24T15:32:38;28.00;96.60
9772;DHT22;4925;52.588;13.370;2023-07-24T15:35:04;28.10;96.80
9772;DHT22;4925;52.588;13.370;2023-07-24T15:37:30;28.30;97.20
9772;DHT22;4925;52.588;13.370;2023-07-24T15:39:57;28.30;97.80
9772;DHT22;4925;52.588;13.370;2023-07-24T15:42:23;28.40;97.70
9772;DHT22;4925;52.588;13.370;2023-07-24T15:44:50;28.50;97.70
9772;DHT22;4925;52.588;13.370;2023-07-24T15:47:16;28.60;96.20
9772;DHT22;4925;52.588;13.370;2023-07-24T15:49:42;28.70;95.40
9772;DHT22;4925;52.588;13.370;2023-07-24T15:52:07;28.80;95.10